createdAt,value
2023-02-24T00:01:51.320Z,99.90
2023-02-24T00:04:21.455Z,99.90
2023-02-24T00:06:49.855Z,99.90
2023-02-24T17:33:47.962Z,96.40
2023-02-24T17:36:16.210Z,96.80
2023-02-24T17:38:44.038Z,96.70
2023-02-24T17:41:12.034Z,96.70
2023-02-24T17:43:39.873Z,96.60
2023-02-24T17:46:07.837Z,96.50
2023-02-24T17:48:36.037Z,96.30
2023-02-24T17:51:05.401Z,96.30
2023-02-24T17:53:33.273Z,96.30
2023-02-24T17:56:05.849Z,96.40
2023-02-24T17:58:34.734Z,96.40
2023-02-24T18:01:03.105Z,96.60
2023-02-24T18:03:31.881Z,96.30
2023-02-24T18:06:00.497Z,96.50
2023-02-24T18:08:30.552Z,96.50
2023-02-24T18:10:59.072Z,96.50
2023-02-24T18:13:27.035Z,96.20
2023-02-24T18:15:55.278Z,96.20
2023-02-24T18:18:24.332Z,96.30
2023-02-24T18:20:52.228Z,96.20
2023-02-24T18:23:20.362Z,96.00
2023-02-24T18:25:49.570Z,95.90
2023-02-24T18:28:17.397Z,95.70
2023-02-24T18:30:45.281Z,96.20
2023-02-24T18:33:13.296Z,96.20
2023-02-24T18:35:41.218Z,96.30
2023-02-24T18:38:09.169Z,96.30
2023-02-24T18:40:37.060Z,96.40
2023-02-24T18:43:06.364Z,96.40
2023-02-24T18:45:34.202Z,96.30
2023-02-24T18:48:04.898Z,96.10
2023-02-24T18:50:33.747Z,96.10
2023-02-24T18:53:01.623Z,96.10
2023-02-24T18:55:29.802Z,96.10
2023-02-24T18:57:57.640Z,96.40
2023-02-24T19:00:27.023Z,96.00
2023-02-24T19:02:54.915Z,96.00
2023-02-24T19:05:22.892Z,96.20
2023-02-24T19:07:50.804Z,96.20
2023-02-24T19:10:19.276Z,96.40
2023-02-24T19:12:50.538Z,96.40
2023-02-24T19:15:18.890Z,96.70
2023-02-24T19:17:48.105Z,96.70
2023-02-24T19:20:16.308Z,96.90
2023-02-24T19:22:44.820Z,96.90
2023-02-24T19:25:12.662Z,97.00
2023-02-24T19:27:40.516Z,97.00
2023-02-24T19:30:09.912Z,97.00
2023-02-24T19:32:38.008Z,97.00
2023-02-24T19:35:08.503Z,96.90
2023-02-24T19:37:36.351Z,97.00
2023-02-24T19:40:04.682Z,96.90
2023-02-24T19:42:32.548Z,96.70
2023-02-24T19:45:00.438Z,96.90
2023-02-24T19:47:28.337Z,96.40
2023-02-24T19:49:56.204Z,96.30
2023-02-24T19:52:25.603Z,96.30
2023-02-24T19:54:54.254Z,96.30
2023-02-24T19:57:22.154Z,96.30
2023-02-24T19:59:52.353Z,96.50
2023-02-24T20:02:20.300Z,96.70
2023-02-24T20:04:48.279Z,96.90
2023-02-24T20:07:16.199Z,96.70
2023-02-24T20:09:45.447Z,96.90
2023-02-24T20:12:13.711Z,97.00
2023-02-24T20:14:41.589Z,97.00
2023-02-24T20:17:09.571Z,97.10
2023-02-24T20:19:37.468Z,97.00
2023-02-24T20:22:05.486Z,96.90
2023-02-24T20:24:35.677Z,96.80
2023-02-24T20:27:05.513Z,96.70
2023-02-24T20:29:35.124Z,96.60
2023-02-24T20:32:03.823Z,96.90
2023-02-24T20:34:31.913Z,96.60
2023-02-24T20:36:59.840Z,96.50
2023-02-24T20:39:27.714Z,96.30
2023-02-24T20:41:55.589Z,96.30
2023-02-24T20:44:24.927Z,96.40
2023-02-24T20:46:52.896Z,96.50
2023-02-24T20:49:20.765Z,96.20
2023-02-24T20:51:48.674Z,95.00
2023-02-24T20:54:16.682Z,95.00
2023-02-24T20:56:46.992Z,95.00
2023-02-24T20:59:16.275Z,95.10
2023-02-24T21:01:47.529Z,95.30
2023-02-24T21:04:17.814Z,95.30
2023-02-24T21:06:46.577Z,95.60
2023-02-24T21:09:14.622Z,95.70
2023-02-24T21:11:42.564Z,95.70
2023-02-24T21:14:15.717Z,95.80
2023-02-24T21:16:46.713Z,95.80
2023-02-24T21:19:14.941Z,95.80
2023-02-24T21:21:42.878Z,95.90
2023-02-24T21:24:10.883Z,96.10
2023-02-24T21:26:38.793Z,96.10
2023-02-24T21:29:06.712Z,95.90
2023-02-24T21:31:34.711Z,96.00
2023-02-24T21:34:04.074Z,95.80
2023-02-24T21:36:31.958Z,96.10
2023-02-24T21:39:00.923Z,95.90
2023-02-24T21:41:28.878Z,96.00
2023-02-24T21:43:57.133Z,96.20
2023-02-24T21:46:28.081Z,96.40
2023-02-24T21:48:57.464Z,96.30
2023-02-24T21:51:27.720Z,96.50
2023-02-24T21:53:56.016Z,96.30
2023-02-24T21:56:26.418Z,96.40
2023-02-24T21:58:57.824Z,96.30
2023-02-24T22:01:27.812Z,96.40
2023-02-24T22:03:56.572Z,96.50
2023-02-24T22:06:29.569Z,96.50
2023-02-24T22:08:58.989Z,96.50
2023-02-24T22:11:27.105Z,96.40
2023-02-24T22:13:55.035Z,96.50
2023-02-24T22:16:24.973Z,96.60
2023-02-24T22:18:55.209Z,96.40
2023-02-24T22:21:25.049Z,96.60
2023-02-24T22:23:55.671Z,96.60
2023-02-24T22:26:24.534Z,96.50
2023-02-24T22:28:53.892Z,96.40
2023-02-24T22:31:24.178Z,96.40
2023-02-24T22:33:52.202Z,96.50
2023-02-24T22:36:21.978Z,96.40
2023-02-24T22:38:50.000Z,96.60
2023-02-24T22:41:21.113Z,96.60
2023-02-24T22:43:49.517Z,96.60
2023-02-24T22:46:19.196Z,96.70
2023-02-24T22:48:47.698Z,96.70
2023-02-24T22:51:16.044Z,96.70
2023-02-24T22:53:47.342Z,96.50
2023-02-24T22:56:16.686Z,96.40
2023-02-24T22:58:46.277Z,96.30
2023-02-24T23:01:16.010Z,96.30
2023-02-24T23:03:46.033Z,96.20
2023-02-24T23:06:16.417Z,96.20
2023-02-24T23:08:46.081Z,96.30
2023-02-24T23:11:16.049Z,96.30
2023-02-24T23:13:47.774Z,96.60
2023-02-24T23:16:18.443Z,96.60
2023-02-24T23:18:50.714Z,96.60
2023-02-24T23:21:20.540Z,96.60
2023-02-24T23:23:48.808Z,96.60
2023-02-24T23:26:17.909Z,96.40
2023-02-24T23:28:47.136Z,96.40
2023-02-24T23:31:19.749Z,96.40
2023-02-24T23:33:47.921Z,96.20
2023-02-24T23:36:16.804Z,96.10
2023-02-24T23:38:44.708Z,96.10
2023-02-24T23:41:13.737Z,96.10
2023-02-24T23:43:42.302Z,96.20
2023-02-24T23:46:13.514Z,96.50
2023-02-24T23:48:41.972Z,96.40
2023-02-24T23:51:13.357Z,96.40
2023-02-24T23:53:42.872Z,96.50
2023-02-24T23:56:14.546Z,96.70
2023-02-24T23:58:42.517Z,96.60
